createdAt,value
2018-12-14T00:00:24.745Z,1015.96
2018-12-14T00:00:50.879Z,1015.87
2018-12-14T00:01:17.012Z,1015.9
2018-12-14T00:01:43.124Z,1015.89
2018-12-14T00:02:09.237Z,1015.94
2018-12-14T00:02:35.344Z,1015.87
2018-12-14T00:03:01.447Z,1015.87
2018-12-14T00:03:27.589Z,1015.89
2018-12-14T00:03:53.704Z,1015.91
2018-12-14T00:04:19.807Z,1015.92
2018-12-14T00:04:45.920Z,1015.9
2018-12-14T00:05:12.019Z,1015.89
2018-12-14T00:05:38.124Z,1015.9
2018-12-14T00:06:04.226Z,1015.86
2018-12-14T00:06:30.337Z,1015.88
2018-12-14T00:06:56.438Z,1015.9
2018-12-14T00:07:22.545Z,1015.87
2018-12-14T00:07:48.734Z,1015.88
2018-12-14T00:08:14.841Z,1015.87
2018-12-14T00:08:40.946Z,1015.88
2018-12-14T00:09:07.045Z,1015.88
2018-12-14T00:09:33.155Z,1015.89
2018-12-14T00:09:59.282Z,1015.87
2018-12-14T00:10:25.383Z,1015.87
2018-12-14T00:10:51.484Z,1015.85
2018-12-14T00:11:17.592Z,1015.89
2018-12-14T00:11:45.611Z,1015.85
2018-12-14T00:12:10.792Z,1015.88
2018-12-14T00:12:36.897Z,1015.89
2018-12-14T00:13:02.997Z,1015.9
2018-12-14T00:13:29.104Z,1015.89
2018-12-14T00:13:55.225Z,1015.89
2018-12-14T00:14:21.328Z,1015.88
2018-12-14T00:14:47.433Z,1015.88
2018-12-14T00:15:13.534Z,1015.86
2018-12-14T00:15:39.638Z,1015.93
2018-12-14T00:16:05.742Z,1015.87
2018-12-14T00:16:31.851Z,1015.88
2018-12-14T00:16:57.958Z,1015.89
2018-12-14T00:17:24.058Z,1015.88
2018-12-14T00:17:50.161Z,1015.88
2018-12-14T00:18:16.266Z,1015.89
2018-12-14T00:18:42.375Z,1015.9
2018-12-14T00:19:08.479Z,1015.87
2018-12-14T00:19:34.579Z,1015.85
2018-12-14T00:20:00.689Z,1015.87
2018-12-14T00:20:26.795Z,1015.84
2018-12-14T00:20:52.896Z,1015.84
2018-12-14T00:21:19.002Z,1015.88
2018-12-14T00:21:45.106Z,1015.89
2018-12-14T00:22:11.223Z,1015.93
2018-12-14T00:22:37.321Z,1015.85
2018-12-14T00:23:03.433Z,1015.89
2018-12-14T00:23:29.538Z,1015.92
2018-12-14T00:23:55.643Z,1015.91
2018-12-14T00:24:21.740Z,1015.92
2018-12-14T00:24:47.847Z,1015.96
2018-12-14T00:25:13.946Z,1015.93
2018-12-14T00:25:40.086Z,1015.99
2018-12-14T00:26:06.222Z,1015.99
2018-12-14T00:26:32.319Z,1015.99
2018-12-14T00:26:58.426Z,1015.95
2018-12-14T00:27:24.532Z,1016.01
2018-12-14T00:27:50.641Z,1015.97
2018-12-14T00:28:16.744Z,1016
2018-12-14T00:28:42.854Z,1015.97
2018-12-14T00:29:08.956Z,1016.01
2018-12-14T00:29:35.094Z,1015.96
2018-12-14T00:30:01.197Z,1015.97
2018-12-14T00:30:27.301Z,1015.92
2018-12-14T00:30:53.415Z,1015.96
2018-12-14T00:31:19.541Z,1015.95
2018-12-14T00:31:45.641Z,1015.95
2018-12-14T00:32:11.778Z,1015.94
2018-12-14T00:32:37.887Z,1015.96
2018-12-14T00:33:03.984Z,1015.99
2018-12-14T00:33:30.089Z,1016
2018-12-14T00:33:56.191Z,1016
2018-12-14T00:34:22.299Z,1016
2018-12-14T00:34:48.404Z,1015.99
2018-12-14T00:35:14.507Z,1016.03
2018-12-14T00:35:40.612Z,1015.96
2018-12-14T00:36:06.715Z,1016
2018-12-14T00:36:32.867Z,1016
2018-12-14T00:36:58.968Z,1016.03
2018-12-14T00:37:25.104Z,1016
2018-12-14T00:37:51.213Z,1016.03
2018-12-14T00:38:17.310Z,1016.04
2018-12-14T00:38:43.422Z,1016.01
2018-12-14T00:39:09.523Z,1016.07
2018-12-14T00:39:35.630Z,1016.07
2018-12-14T00:40:01.734Z,1016.07
2018-12-14T00:40:27.870Z,1016.05
2018-12-14T00:40:53.971Z,1016.07
2018-12-14T00:41:20.092Z,1016.06
2018-12-14T00:41:51.706Z,1016.08
2018-12-14T00:42:13.318Z,1016.07
2018-12-14T00:42:39.426Z,1016.05
2018-12-14T00:43:05.540Z,1016.07
2018-12-14T00:43:31.638Z,1016.07
2018-12-14T00:43:57.743Z,1016.05
2018-12-14T00:44:23.847Z,1016.08
2018-12-14T00:44:49.952Z,1016.06
2018-12-14T00:45:16.058Z,1016.12
2018-12-14T00:45:42.189Z,1016.13
2018-12-14T00:46:08.295Z,1016.11
2018-12-14T00:46:34.402Z,1016.1
2018-12-14T00:47:00.508Z,1016.16
2018-12-14T00:47:26.615Z,1016.11
2018-12-14T00:47:52.713Z,1016.12
2018-12-14T00:48:18.821Z,1016.14
2018-12-14T00:48:44.930Z,1016.14
2018-12-14T00:49:11.032Z,1016.13
2018-12-14T00:49:37.138Z,1016.16
2018-12-14T00:50:03.271Z,1016.15
2018-12-14T00:50:29.381Z,1016.15
2018-12-14T00:50:55.499Z,1016.12
2018-12-14T00:51:21.607Z,1016.13
2018-12-14T00:51:47.715Z,1016.17
2018-12-14T00:52:13.832Z,1016.12
2018-12-14T00:52:39.946Z,1016.14
2018-12-14T00:53:06.052Z,1016.17
2018-12-14T00:53:32.157Z,1016.16
2018-12-14T00:53:58.264Z,1016.14
2018-12-14T00:54:24.367Z,1016.15
2018-12-14T00:54:50.471Z,1016.14
2018-12-14T00:55:16.570Z,1016.15
2018-12-14T00:55:42.672Z,1016.16
2018-12-14T00:56:08.781Z,1016.17
2018-12-14T00:56:34.886Z,1016.19
2018-12-14T00:57:00.994Z,1016.19
2018-12-14T00:57:27.093Z,1016.17
2018-12-14T00:57:53.205Z,1016.14
2018-12-14T00:58:19.303Z,1016.15
2018-12-14T00:58:45.412Z,1016.16
2018-12-14T00:59:11.546Z,1016.14
2018-12-14T00:59:37.647Z,1016.18
2018-12-14T01:00:03.753Z,1016.13
2018-12-14T01:00:29.859Z,1016.14
2018-12-14T01:00:55.955Z,1016.17
2018-12-14T01:01:22.061Z,1016.19
2018-12-14T01:01:48.169Z,1016.16
2018-12-14T01:02:14.273Z,1016.18
2018-12-14T01:02:40.374Z,1016.17
2018-12-14T01:03:06.485Z,1016.17
2018-12-14T01:03:32.583Z,1016.14
2018-12-14T01:03:58.690Z,1016.17
2018-12-14T01:04:24.821Z,1016.17
2018-12-14T01:04:50.925Z,1016.19
2018-12-14T01:05:17.028Z,1016.2
2018-12-14T01:05:43.124Z,1016.2
2018-12-14T01:06:09.235Z,1016.17
2018-12-14T01:06:35.343Z,1016.18
2018-12-14T01:07:01.449Z,1016.2
2018-12-14T01:07:27.557Z,1016.19
2018-12-14T01:07:53.688Z,1016.15
2018-12-14T01:08:19.792Z,1016.15
2018-12-14T01:08:45.898Z,1016.13
2018-12-14T01:09:12.004Z,1016.16
2018-12-14T01:09:38.110Z,1016.1
2018-12-14T01:10:04.248Z,1016.13
2018-12-14T01:10:30.359Z,1016.12
2018-12-14T01:10:56.461Z,1016.1
2018-12-14T01:11:22.571Z,1016.12
2018-12-14T01:11:48.674Z,1016.12
2018-12-14T01:12:15.795Z,1016.14
2018-12-14T01:12:41.932Z,1016.13
2018-12-14T01:13:08.030Z,1016.16
2018-12-14T01:13:34.163Z,1016.18
2018-12-14T01:14:00.272Z,1016.18
2018-12-14T01:14:26.407Z,1016.19
2018-12-14T01:14:52.508Z,1016.2
2018-12-14T01:15:18.609Z,1016.18
2018-12-14T01:15:44.711Z,1016.21
2018-12-14T01:16:10.876Z,1016.18
2018-12-14T01:16:37.009Z,1016.21
2018-12-14T01:17:03.110Z,1016.22
2018-12-14T01:17:29.217Z,1016.24
2018-12-14T01:17:55.314Z,1016.16
2018-12-14T01:18:21.425Z,1016.18
2018-12-14T01:18:47.524Z,1016.22
2018-12-14T01:19:13.630Z,1016.25
2018-12-14T01:19:39.730Z,1016.24
2018-12-14T01:20:05.864Z,1016.24
2018-12-14T01:20:31.960Z,1016.2
2018-12-14T01:20:58.074Z,1016.18
2018-12-14T01:21:24.207Z,1016.21
2018-12-14T01:21:50.316Z,1016.18
2018-12-14T01:22:16.442Z,1016.19
2018-12-14T01:22:42.577Z,1016.22
2018-12-14T01:23:08.747Z,1016.2
2018-12-14T01:23:34.877Z,1016.25
2018-12-14T01:24:00.982Z,1016.18
2018-12-14T01:24:27.105Z,1016.21
2018-12-14T01:24:53.239Z,1016.21
2018-12-14T01:25:19.343Z,1016.2
2018-12-14T01:25:45.448Z,1016.23
2018-12-14T01:26:11.587Z,1016.23
2018-12-14T01:26:37.666Z,1016.25
2018-12-14T01:27:03.799Z,1016.25
2018-12-14T01:27:29.933Z,1016.21
2018-12-14T01:27:56.044Z,1016.24
2018-12-14T01:28:22.146Z,1016.26
2018-12-14T01:28:48.274Z,1016.27
2018-12-14T01:29:14.378Z,1016.28
2018-12-14T01:29:40.479Z,1016.27
2018-12-14T01:30:06.590Z,1016.24
2018-12-14T01:30:32.691Z,1016.23
2018-12-14T01:30:58.823Z,1016.27
2018-12-14T01:31:24.923Z,1016.24
2018-12-14T01:31:51.061Z,1016.26
2018-12-14T01:32:17.159Z,1016.29
2018-12-14T01:32:43.260Z,1016.25
2018-12-14T01:33:09.364Z,1016.28
2018-12-14T01:33:35.502Z,1016.23
2018-12-14T01:34:01.599Z,1016.26
2018-12-14T01:34:27.741Z,1016.25
2018-12-14T01:34:53.836Z,1016.28
2018-12-14T01:35:19.946Z,1016.27
2018-12-14T01:35:46.049Z,1016.26
2018-12-14T01:36:12.150Z,1016.29
2018-12-14T01:36:38.253Z,1016.25
2018-12-14T01:37:04.408Z,1016.28
2018-12-14T01:37:30.513Z,1016.29
2018-12-14T01:37:56.617Z,1016.28
2018-12-14T01:38:22.718Z,1016.27
2018-12-14T01:38:48.819Z,1016.29
2018-12-14T01:39:14.932Z,1016.27
2018-12-14T01:39:41.033Z,1016.25
2018-12-14T01:40:07.141Z,1016.29
2018-12-14T01:40:33.247Z,1016.29
2018-12-14T01:40:59.359Z,1016.28
2018-12-14T01:41:25.456Z,1016.28
2018-12-14T01:41:51.566Z,1016.25
2018-12-14T01:42:17.720Z,1016.26
2018-12-14T01:42:43.824Z,1016.27
2018-12-14T01:43:09.932Z,1016.3
2018-12-14T01:43:36.033Z,1016.29
2018-12-14T01:44:02.135Z,1016.26
2018-12-14T01:44:28.238Z,1016.29
2018-12-14T01:44:54.345Z,1016.29
2018-12-14T01:45:20.482Z,1016.31
2018-12-14T01:45:46.586Z,1016.3
2018-12-14T01:46:12.710Z,1016.28
2018-12-14T01:46:38.813Z,1016.27
2018-12-14T01:47:04.919Z,1016.29
2018-12-14T01:47:31.052Z,1016.3
2018-12-14T01:47:57.163Z,1016.31
2018-12-14T01:48:24.174Z,1016.27
2018-12-14T01:48:50.273Z,1016.29
2018-12-14T01:49:16.379Z,1016.3
2018-12-14T01:49:42.482Z,1016.3
2018-12-14T01:50:08.584Z,1016.3
2018-12-14T01:50:34.691Z,1016.3
2018-12-14T01:51:00.795Z,1016.3
2018-12-14T01:51:26.900Z,1016.31
2018-12-14T01:51:53.031Z,1016.29
2018-12-14T01:52:19.142Z,1016.29
2018-12-14T01:52:45.251Z,1016.28
2018-12-14T01:53:11.351Z,1016.28
2018-12-14T01:53:37.456Z,1016.27
2018-12-14T01:54:03.595Z,1016.28
2018-12-14T01:54:29.703Z,1016.32
2018-12-14T01:54:55.806Z,1016.26
2018-12-14T01:55:21.907Z,1016.28
2018-12-14T01:55:48.013Z,1016.32
2018-12-14T01:56:14.123Z,1016.27
2018-12-14T01:56:40.226Z,1016.24
2018-12-14T01:57:06.331Z,1016.26
2018-12-14T01:57:32.434Z,1016.26
2018-12-14T01:57:58.540Z,1016.27
2018-12-14T01:58:24.649Z,1016.28
2018-12-14T01:58:50.778Z,1016.23
2018-12-14T01:59:16.910Z,1016.28
2018-12-14T01:59:43.011Z,1016.26
2018-12-14T02:00:09.112Z,1016.24
2018-12-14T02:00:35.230Z,1016.23
2018-12-14T02:01:01.330Z,1016.23
2018-12-14T02:01:27.466Z,1016.2
2018-12-14T02:01:53.570Z,1016.19
2018-12-14T02:02:19.665Z,1016.21
2018-12-14T02:02:45.775Z,1016.21
2018-12-14T02:03:11.879Z,1016.17
2018-12-14T02:03:37.995Z,1016.17
2018-12-14T02:04:04.097Z,1016.22
2018-12-14T02:04:30.200Z,1016.18
2018-12-14T02:04:56.327Z,1016.16
2018-12-14T02:05:22.434Z,1016.21
2018-12-14T02:05:48.529Z,1016.19
2018-12-14T02:06:14.640Z,1016.16
2018-12-14T02:06:40.736Z,1016.16
2018-12-14T02:07:06.839Z,1016.13
2018-12-14T02:07:32.946Z,1016.14
2018-12-14T02:07:59.074Z,1016.17
2018-12-14T02:08:25.178Z,1016.16
2018-12-14T02:08:51.329Z,1016.16
2018-12-14T02:09:17.477Z,1016.13
2018-12-14T02:09:43.585Z,1016.12
2018-12-14T02:10:09.683Z,1016.2
2018-12-14T02:10:35.788Z,1016.16
2018-12-14T02:11:01.925Z,1016.14
2018-12-14T02:11:28.030Z,1016.13
2018-12-14T02:11:54.136Z,1016.13
2018-12-14T02:12:21.252Z,1016.13
2018-12-14T02:12:47.362Z,1016.16
2018-12-14T02:13:13.494Z,1016.16
2018-12-14T02:13:39.605Z,1016.12
2018-12-14T02:14:05.704Z,1016.12
2018-12-14T02:14:31.814Z,1016.15
2018-12-14T02:14:57.915Z,1016.15
2018-12-14T02:15:24.018Z,1016.14
2018-12-14T02:15:50.149Z,1016.15
2018-12-14T02:16:16.293Z,1016.12
2018-12-14T02:16:42.389Z,1016.14
2018-12-14T02:17:08.495Z,1016.14
2018-12-14T02:17:34.599Z,1016.14
2018-12-14T02:18:00.700Z,1016.16
2018-12-14T02:18:26.803Z,1016.11
2018-12-14T02:18:52.910Z,1016.13
2018-12-14T02:19:19.012Z,1016.12
2018-12-14T02:19:45.146Z,1016.14
2018-12-14T02:20:11.250Z,1016.13
2018-12-14T02:20:37.358Z,1016.17
2018-12-14T02:21:03.464Z,1016.1
2018-12-14T02:21:29.556Z,1016.12
2018-12-14T02:21:55.694Z,1016.08
2018-12-14T02:22:21.801Z,1016.1
2018-12-14T02:22:47.906Z,1016.08
2018-12-14T02:23:14.028Z,1016.08
2018-12-14T02:23:40.133Z,1016.1
2018-12-14T02:24:06.232Z,1016.15
2018-12-14T02:24:32.336Z,1016.11
2018-12-14T02:24:58.477Z,1016.09
2018-12-14T02:25:24.582Z,1016.11
2018-12-14T02:25:50.685Z,1016.09
2018-12-14T02:26:16.792Z,1016.12
2018-12-14T02:26:42.897Z,1016.11
2018-12-14T02:27:09.006Z,1016.08
2018-12-14T02:27:35.112Z,1016.1
2018-12-14T02:28:01.214Z,1016.08
2018-12-14T02:28:27.340Z,1016.11
2018-12-14T02:28:53.446Z,1016.11
2018-12-14T02:29:19.586Z,1016.13
2018-12-14T02:29:45.682Z,1016.09
2018-12-14T02:30:11.816Z,1016.1
2018-12-14T02:30:38.003Z,1016.11
2018-12-14T02:31:04.135Z,1016.06
2018-12-14T02:31:30.267Z,1016.1
2018-12-14T02:31:56.469Z,1016.11
2018-12-14T02:32:22.576Z,1016.09
2018-12-14T02:32:48.701Z,1016.1
2018-12-14T02:33:14.831Z,1016.08
2018-12-14T02:33:40.929Z,1016.07
2018-12-14T02:34:07.037Z,1016.08
2018-12-14T02:34:33.170Z,1016.06
2018-12-14T02:34:59.280Z,1016.03
2018-12-14T02:35:25.378Z,1016.09
2018-12-14T02:35:51.482Z,1016.06
2018-12-14T02:36:17.620Z,1016.05
2018-12-14T02:36:43.777Z,1016.05
2018-12-14T02:37:09.914Z,1016.05
2018-12-14T02:37:36.016Z,1016.05
2018-12-14T02:38:02.120Z,1016.02
2018-12-14T02:38:28.225Z,1016.05
2018-12-14T02:38:54.336Z,1016.05
2018-12-14T02:39:20.460Z,1016.04
2018-12-14T02:39:46.566Z,1016.05
2018-12-14T02:40:12.702Z,1016.04
2018-12-14T02:40:38.840Z,1016.07
2018-12-14T02:41:05.006Z,1016.07
2018-12-14T02:41:31.137Z,1016.05
2018-12-14T02:41:57.267Z,1016.06
2018-12-14T02:42:24.381Z,1016.07
2018-12-14T02:42:50.517Z,1016.09
2018-12-14T02:43:16.615Z,1016.11
2018-12-14T02:43:42.726Z,1016.1
2018-12-14T02:44:08.823Z,1016.1
2018-12-14T02:44:34.961Z,1016.1
2018-12-14T02:45:01.062Z,1016.13
2018-12-14T02:45:27.160Z,1016.11
2018-12-14T02:45:53.297Z,1016.12
2018-12-14T02:46:19.452Z,1016.12
2018-12-14T02:46:45.647Z,1016.12
2018-12-14T02:47:11.780Z,1016.11
2018-12-14T02:47:37.880Z,1016.11
2018-12-14T02:48:03.994Z,1016.13
2018-12-14T02:48:30.116Z,1016.1
2018-12-14T02:48:56.223Z,1016.13
2018-12-14T02:49:22.362Z,1016.1
2018-12-14T02:49:48.492Z,1016.11
2018-12-14T02:50:14.593Z,1016.07
2018-12-14T02:50:40.698Z,1016.08
2018-12-14T02:51:06.842Z,1016.08
2018-12-14T02:51:32.973Z,1016.1
2018-12-14T02:51:59.103Z,1016.06
2018-12-14T02:52:25.233Z,1016.08
2018-12-14T02:52:51.340Z,1016.05
2018-12-14T02:53:17.469Z,1016.08
2018-12-14T02:53:43.592Z,1016.06
2018-12-14T02:54:09.704Z,1016.07
2018-12-14T02:54:35.835Z,1016.08
2018-12-14T02:55:01.948Z,1016.11
2018-12-14T02:55:28.164Z,1016.11
2018-12-14T02:55:54.271Z,1016.09
2018-12-14T02:56:20.377Z,1016.12
2018-12-14T02:56:46.508Z,1016.12
2018-12-14T02:57:12.630Z,1016.11
2018-12-14T02:57:38.744Z,1016.13
2018-12-14T02:58:04.903Z,1016.13
2018-12-14T02:58:31.037Z,1016.14
2018-12-14T02:58:57.167Z,1016.12
2018-12-14T02:59:23.269Z,1016.15
2018-12-14T02:59:49.443Z,1016.09
2018-12-14T03:00:15.556Z,1016.1
2018-12-14T03:00:41.657Z,1016.11
2018-12-14T03:01:07.765Z,1016.13
2018-12-14T03:01:33.898Z,1016.1
2018-12-14T03:02:00.021Z,1016.11
2018-12-14T03:02:26.133Z,1016.09
2018-12-14T03:02:52.237Z,1016.1
2018-12-14T03:03:18.359Z,1016.11
2018-12-14T03:03:44.467Z,1016.12
2018-12-14T03:04:10.572Z,1016.13
2018-12-14T03:04:36.705Z,1016.07
2018-12-14T03:05:02.801Z,1016.08
2018-12-14T03:05:28.932Z,1016.08
2018-12-14T03:05:55.031Z,1016.08
2018-12-14T03:06:21.138Z,1016.1
2018-12-14T03:06:47.245Z,1016.06
2018-12-14T03:07:13.351Z,1016.07
2018-12-14T03:07:39.490Z,1016.08
2018-12-14T03:08:05.623Z,1016.06
2018-12-14T03:08:31.764Z,1016.05
2018-12-14T03:08:57.867Z,1016.04
2018-12-14T03:09:23.977Z,1016.05
2018-12-14T03:09:50.077Z,1016.06
2018-12-14T03:10:16.209Z,1016.08
2018-12-14T03:10:42.313Z,1016.08
2018-12-14T03:11:08.422Z,1016.03
2018-12-14T03:11:34.580Z,1016.07
2018-12-14T03:12:00.738Z,1016.05
2018-12-14T03:12:27.830Z,1016.04
2018-12-14T03:12:53.969Z,1016.02
2018-12-14T03:13:20.065Z,1016.04
2018-12-14T03:13:46.190Z,1015.99
2018-12-14T03:14:12.296Z,1016.01
2018-12-14T03:14:38.423Z,1015.97
2018-12-14T03:15:04.527Z,1015.99
2018-12-14T03:15:30.660Z,1015.96
2018-12-14T03:15:56.815Z,1015.97
2018-12-14T03:16:23.061Z,1015.97
2018-12-14T03:16:49.168Z,1015.96
2018-12-14T03:17:15.313Z,1015.94
2018-12-14T03:17:41.456Z,1015.93
2018-12-14T03:18:07.614Z,1015.93
2018-12-14T03:18:33.714Z,1015.96
2018-12-14T03:18:59.816Z,1015.99
2018-12-14T03:19:25.966Z,1015.96
2018-12-14T03:19:52.089Z,1015.95
2018-12-14T03:20:18.205Z,1015.96
2018-12-14T03:20:44.335Z,1015.94
2018-12-14T03:21:10.438Z,1016
2018-12-14T03:21:36.543Z,1016
2018-12-14T03:22:02.646Z,1016.02
2018-12-14T03:22:28.784Z,1015.99
2018-12-14T03:22:54.908Z,1015.97
2018-12-14T03:23:21.010Z,1015.97
2018-12-14T03:23:47.149Z,1015.99
2018-12-14T03:24:13.281Z,1015.99
2018-12-14T03:24:39.387Z,1015.99
2018-12-14T03:25:05.536Z,1016.02
2018-12-14T03:25:31.663Z,1015.98
2018-12-14T03:25:57.775Z,1016.02
2018-12-14T03:26:23.923Z,1016.05
2018-12-14T03:26:50.028Z,1015.98
2018-12-14T03:27:16.164Z,1016
2018-12-14T03:27:42.291Z,1015.96
2018-12-14T03:28:08.396Z,1016
2018-12-14T03:28:34.559Z,1016.01
2018-12-14T03:29:00.693Z,1016
2018-12-14T03:29:26.798Z,1015.98
2018-12-14T03:29:52.940Z,1015.97
2018-12-14T03:30:19.105Z,1015.94
2018-12-14T03:30:45.320Z,1015.96
2018-12-14T03:31:11.484Z,1015.96
2018-12-14T03:31:37.646Z,1015.91
2018-12-14T03:32:03.787Z,1015.93
2018-12-14T03:32:29.972Z,1015.92
2018-12-14T03:32:56.183Z,1015.93
2018-12-14T03:33:22.337Z,1015.94
2018-12-14T03:33:48.446Z,1015.96
2018-12-14T03:34:14.551Z,1015.89
2018-12-14T03:34:40.653Z,1015.93
2018-12-14T03:35:06.752Z,1015.92
2018-12-14T03:35:32.851Z,1015.92
2018-12-14T03:35:58.957Z,1015.9
2018-12-14T03:36:25.061Z,1015.93
2018-12-14T03:36:51.169Z,1015.95
2018-12-14T03:37:17.328Z,1015.95
2018-12-14T03:37:43.434Z,1015.96
2018-12-14T03:38:09.536Z,1015.96
2018-12-14T03:38:35.640Z,1015.93
2018-12-14T03:39:01.746Z,1015.89
2018-12-14T03:39:27.844Z,1015.89
2018-12-14T03:39:53.953Z,1015.89
2018-12-14T03:40:20.105Z,1015.94
2018-12-14T03:40:46.205Z,1015.9
2018-12-14T03:41:12.309Z,1015.9
2018-12-14T03:41:38.411Z,1015.92
2018-12-14T03:42:04.592Z,1015.92
2018-12-14T03:42:34.086Z,1015.88
2018-12-14T03:42:57.801Z,1015.91
2018-12-14T03:43:23.910Z,1015.89
2018-12-14T03:43:50.090Z,1015.91
2018-12-14T03:44:16.239Z,1015.93
2018-12-14T03:44:42.381Z,1015.88
2018-12-14T03:45:08.508Z,1015.88
2018-12-14T03:45:34.616Z,1015.88
2018-12-14T03:46:00.750Z,1015.85
2018-12-14T03:46:26.841Z,1015.9
2018-12-14T03:46:52.967Z,1015.91
2018-12-14T03:47:19.165Z,1015.87
2018-12-14T03:47:45.255Z,1015.86
2018-12-14T03:48:11.393Z,1015.85
2018-12-14T03:48:37.495Z,1015.89
2018-12-14T03:49:03.628Z,1015.83
2018-12-14T03:49:29.734Z,1015.85
2018-12-14T03:49:55.833Z,1015.91
2018-12-14T03:50:21.938Z,1015.9
2018-12-14T03:50:48.043Z,1015.87
2018-12-14T03:51:14.174Z,1015.85
2018-12-14T03:51:40.279Z,1015.85
2018-12-14T03:52:06.387Z,1015.85
2018-12-14T03:52:32.513Z,1015.84
2018-12-14T03:52:58.705Z,1015.88
2018-12-14T03:53:24.797Z,1015.85
2018-12-14T03:53:50.906Z,1015.88
2018-12-14T03:54:17.014Z,1015.83
2018-12-14T03:54:43.121Z,1015.84
2018-12-14T03:55:09.225Z,1015.88
2018-12-14T03:55:35.335Z,1015.88
2018-12-14T03:56:01.441Z,1015.86
2018-12-14T03:56:27.553Z,1015.84
2018-12-14T03:56:53.718Z,1015.88
2018-12-14T03:57:19.876Z,1015.92
2018-12-14T03:57:46.051Z,1015.84
2018-12-14T03:58:12.169Z,1015.85
2018-12-14T03:58:38.272Z,1015.88
2018-12-14T03:59:04.378Z,1015.87
2018-12-14T03:59:30.506Z,1015.88
2018-12-14T03:59:56.655Z,1015.89
2018-12-14T04:00:22.769Z,1015.87
2018-12-14T04:00:48.874Z,1015.88
2018-12-14T04:01:14.971Z,1015.88
2018-12-14T04:01:41.103Z,1015.87
2018-12-14T04:02:07.208Z,1015.87
2018-12-14T04:02:33.316Z,1015.85
2018-12-14T04:02:59.443Z,1015.84
2018-12-14T04:03:25.544Z,1015.85
2018-12-14T04:03:51.648Z,1015.83
2018-12-14T04:04:17.805Z,1015.85
2018-12-14T04:04:43.918Z,1015.85
2018-12-14T04:05:10.027Z,1015.83
2018-12-14T04:05:36.131Z,1015.87
2018-12-14T04:06:02.239Z,1015.86
2018-12-14T04:06:28.338Z,1015.85
2018-12-14T04:06:54.446Z,1015.85
2018-12-14T04:07:20.548Z,1015.87
2018-12-14T04:07:46.657Z,1015.88
2018-12-14T04:08:12.785Z,1015.85
2018-12-14T04:08:38.913Z,1015.87
2018-12-14T04:09:05.026Z,1015.89
2018-12-14T04:09:31.153Z,1015.88
2018-12-14T04:09:57.262Z,1015.88
2018-12-14T04:10:23.369Z,1015.87
2018-12-14T04:10:49.503Z,1015.85
2018-12-14T04:11:15.600Z,1015.88
2018-12-14T04:11:41.701Z,1015.86
2018-12-14T04:12:07.802Z,1015.9
2018-12-14T04:12:41.203Z,1015.91
2018-12-14T04:13:01.995Z,1015.9
2018-12-14T04:13:28.103Z,1015.92
2018-12-14T04:13:54.240Z,1015.95
2018-12-14T04:14:20.366Z,1015.9
2018-12-14T04:14:46.463Z,1015.9
2018-12-14T04:15:12.574Z,1015.96
2018-12-14T04:15:38.699Z,1015.93
2018-12-14T04:16:04.837Z,1015.91
2018-12-14T04:16:30.959Z,1015.94
2018-12-14T04:16:57.038Z,1015.95
2018-12-14T04:17:23.146Z,1015.96
2018-12-14T04:17:49.273Z,1015.98
2018-12-14T04:18:15.371Z,1015.94
2018-12-14T04:18:41.507Z,1015.93
2018-12-14T04:19:07.611Z,1015.91
2018-12-14T04:19:33.765Z,1015.94
2018-12-14T04:19:59.962Z,1015.92
2018-12-14T04:20:26.014Z,1015.94
2018-12-14T04:20:52.147Z,1015.95
2018-12-14T04:21:18.248Z,1015.92
2018-12-14T04:21:44.382Z,1015.95
2018-12-14T04:22:10.511Z,1015.97
2018-12-14T04:22:36.645Z,1015.92
2018-12-14T04:23:02.776Z,1015.98
2018-12-14T04:23:28.884Z,1015.96
2018-12-14T04:23:55.010Z,1015.94
2018-12-14T04:24:21.142Z,1015.92
2018-12-14T04:24:47.246Z,1015.93
2018-12-14T04:25:13.379Z,1015.93
2018-12-14T04:25:39.513Z,1015.96
2018-12-14T04:26:05.612Z,1015.87
2018-12-14T04:26:31.782Z,1015.9
2018-12-14T04:26:57.922Z,1015.91
2018-12-14T04:27:24.084Z,1015.91
2018-12-14T04:27:50.192Z,1015.9
2018-12-14T04:28:16.324Z,1015.93
2018-12-14T04:28:42.459Z,1015.91
2018-12-14T04:29:08.556Z,1015.87
2018-12-14T04:29:34.661Z,1015.86
2018-12-14T04:30:00.795Z,1015.9
2018-12-14T04:30:26.898Z,1015.89
2018-12-14T04:30:52.998Z,1015.89
2018-12-14T04:31:19.108Z,1015.87
2018-12-14T04:31:45.211Z,1015.9
2018-12-14T04:32:11.378Z,1015.87
2018-12-14T04:32:37.513Z,1015.89
2018-12-14T04:33:03.621Z,1015.85
2018-12-14T04:33:29.730Z,1015.89
2018-12-14T04:33:55.828Z,1015.91
2018-12-14T04:34:21.934Z,1015.88
2018-12-14T04:34:48.061Z,1015.9
2018-12-14T04:35:14.196Z,1015.85
2018-12-14T04:35:40.298Z,1015.84
2018-12-14T04:36:06.424Z,1015.86
2018-12-14T04:36:32.525Z,1015.84
2018-12-14T04:36:58.627Z,1015.84
2018-12-14T04:37:24.728Z,1015.85
2018-12-14T04:37:50.864Z,1015.87
2018-12-14T04:38:16.989Z,1015.86
2018-12-14T04:38:43.091Z,1015.83
2018-12-14T04:39:09.187Z,1015.84
2018-12-14T04:39:36.316Z,1015.87
2018-12-14T04:40:02.463Z,1015.82
2018-12-14T04:40:28.521Z,1015.8
2018-12-14T04:40:54.625Z,1015.84
2018-12-14T04:41:20.763Z,1015.85
2018-12-14T04:41:46.871Z,1015.82
2018-12-14T04:42:12.972Z,1015.84
2018-12-14T04:42:39.075Z,1015.85
2018-12-14T04:43:06.162Z,1015.83
2018-12-14T04:43:32.278Z,1015.83
2018-12-14T04:43:58.377Z,1015.82
2018-12-14T04:44:24.483Z,1015.81
2018-12-14T04:44:50.610Z,1015.81
2018-12-14T04:45:16.710Z,1015.85
2018-12-14T04:45:42.817Z,1015.8
2018-12-14T04:46:08.930Z,1015.82
2018-12-14T04:46:35.027Z,1015.77
2018-12-14T04:47:01.136Z,1015.83
2018-12-14T04:47:27.264Z,1015.8
2018-12-14T04:47:53.403Z,1015.8
2018-12-14T04:48:19.535Z,1015.83
2018-12-14T04:48:45.639Z,1015.82
2018-12-14T04:49:11.740Z,1015.82
2018-12-14T04:49:37.869Z,1015.81
2018-12-14T04:50:04.066Z,1015.82
2018-12-14T04:50:31.197Z,1015.79
2018-12-14T04:50:57.323Z,1015.79
2018-12-14T04:51:23.430Z,1015.84
2018-12-14T04:51:49.532Z,1015.81
2018-12-14T04:52:15.666Z,1015.81
2018-12-14T04:52:41.773Z,1015.81
2018-12-14T04:53:07.913Z,1015.82
2018-12-14T04:53:34.013Z,1015.84
2018-12-14T04:54:00.113Z,1015.81
2018-12-14T04:54:26.215Z,1015.86
2018-12-14T04:54:52.314Z,1015.88
2018-12-14T04:55:18.421Z,1015.86
2018-12-14T04:55:44.541Z,1015.87
2018-12-14T04:56:10.652Z,1015.85
2018-12-14T04:56:36.783Z,1015.87
2018-12-14T04:57:02.889Z,1015.86
2018-12-14T04:57:28.988Z,1015.87
2018-12-14T04:57:55.106Z,1015.9
2018-12-14T04:58:21.291Z,1015.89
2018-12-14T04:58:47.422Z,1015.9
2018-12-14T04:59:13.529Z,1015.93
2018-12-14T04:59:39.629Z,1015.93
2018-12-14T05:00:05.762Z,1015.92
2018-12-14T05:00:31.886Z,1015.94
2018-12-14T05:00:57.987Z,1015.94
2018-12-14T05:01:24.093Z,1015.95
2018-12-14T05:01:50.258Z,1015.93
2018-12-14T05:02:16.411Z,1015.93
2018-12-14T05:02:42.513Z,1015.95
2018-12-14T05:03:08.620Z,1015.95
2018-12-14T05:03:34.718Z,1015.9
2018-12-14T05:04:00.864Z,1015.94
2018-12-14T05:04:27.048Z,1015.93
2018-12-14T05:04:53.150Z,1015.93
2018-12-14T05:05:19.255Z,1015.94
2018-12-14T05:05:45.361Z,1015.94
2018-12-14T05:06:11.492Z,1015.94
2018-12-14T05:06:37.595Z,1015.95
2018-12-14T05:07:03.704Z,1015.91
2018-12-14T05:07:29.802Z,1015.92
2018-12-14T05:07:55.925Z,1015.94
2018-12-14T05:08:22.063Z,1015.88
2018-12-14T05:08:48.168Z,1015.91
2018-12-14T05:09:14.266Z,1015.94
2018-12-14T05:09:40.369Z,1015.94
2018-12-14T05:10:06.535Z,1015.93
2018-12-14T05:10:32.662Z,1015.91
2018-12-14T05:10:58.767Z,1015.89
2018-12-14T05:11:24.896Z,1015.91
2018-12-14T05:11:51.006Z,1015.91
2018-12-14T05:12:17.171Z,1015.92
2018-12-14T05:12:43.274Z,1015.87
2018-12-14T05:13:09.434Z,1015.9
2018-12-14T05:13:35.566Z,1015.92
2018-12-14T05:14:01.671Z,1015.91
2018-12-14T05:14:27.795Z,1015.91
2018-12-14T05:14:53.926Z,1015.88
2018-12-14T05:15:20.052Z,1015.91
2018-12-14T05:15:46.157Z,1015.91
2018-12-14T05:16:12.282Z,1015.87
2018-12-14T05:16:38.390Z,1015.92
2018-12-14T05:17:04.522Z,1015.95
2018-12-14T05:17:30.652Z,1015.91